Oski — WYD3004 — position and weather

sailwx.info

Track history (hours):
 
Tides and Currents Weather Stations Pressure Air Temp Water Temp Dewpoint Dewpoint Depression Visibility Wind Speed Wind Dir Waves Ship Positions

Oski

Owner: BLUE & GOLD FLEET, SAN FRANCISCO, CA. More information available from US FCC via Universal Licensing System and Coast Guard Vessel Documentation Center.

Last reported at 2015-Jul-06 15:21 UTC. Time now 2015-Jul-06 15:44 UTC.
Position N 37°48' W 122°24'.

Length 24 m; draft 2 m.

Type: Passenger vessel. MMSI: 366985320.

Date/timePositionNaut miles runAvg speedWind from/ knotsBaromVisibWave heightAir tempDewpointWater temp
2015-Jul-06 15:21N 37°48' W 122°24'0 0.0
2015-Jul-06 14:28N 37°48' W 122°24'0 0.0
2015-Jul-06 13:29N 37°48' W 122°24'0 0.0
2015-Jul-06 12:32N 37°48' W 122°24'0 0.0
2015-Jul-06 11:31N 37°48' W 122°24'0 0.0
2015-Jul-06 10:33N 37°48' W 122°24'0 0.0
2015-Jul-06 09:32N 37°48' W 122°24'0 0.0
2015-Jul-06 08:33N 37°48' W 122°24'0 0.0
2015-Jul-06 07:27N 37°48' W 122°24'0 0.0
2015-Jul-06 06:30N 37°48' W 122°24'0 0.0
2015-Jul-06 05:32N 37°48' W 122°24'0 0.0
2015-Jul-06 04:33N 37°48' W 122°24'0 0.0
2015-Jul-06 03:32N 37°48' W 122°24'0 0.0
2015-Jul-06 02:26N 37°48' W 122°24'0 0.0
2015-Jul-06 01:33N 37°48' W 122°24'0 0.0
2015-Jul-06 00:26N 37°48' W 122°24'0 0.0
2015-Jul-05 23:27N 37°48' W 122°24'0 0.0
2015-Jul-05 22:33N 37°48' W 122°24'0 0.0
2015-Jul-05 21:29N 37°48' W 122°24'0 0.0
2015-Jul-05 20:31N 37°48' W 122°24'0 0.0
2015-Jul-05 19:32N 37°48' W 122°24'0 0.0
2015-Jul-05 18:23N 37°48' W 122°24'0 0.0
2015-Jul-05 17:28N 37°48' W 122°24'0 0.0
2015-Jul-05 16:26N 37°48' W 122°24'0 0.0
2015-Jul-05 15:33N 37°48' W 122°24'0 0.0
2015-Jul-05 14:31N 37°48' W 122°24'0 0.0
2015-Jul-05 13:32N 37°48' W 122°24'0 0.0
2015-Jul-05 12:26N 37°48' W 122°24'0 0.0
2015-Jul-05 11:27N 37°48' W 122°24'0 0.0
2015-Jul-05 10:31N 37°48' W 122°24'0 0.0
2015-Jul-05 09:33N 37°48' W 122°24'0 0.0
2015-Jul-05 08:23N 37°48' W 122°24'0 0.0
2015-Jul-05 07:28N 37°48' W 122°24'0 0.0
2015-Jul-05 06:32N 37°48' W 122°24'1 0.8
2015-Jul-05 05:33N 37°49' W 122°25'1 0.8
2015-Jul-05 04:33N 37°49' W 122°24'2 2.0
2015-Jul-05 03:33N 37°49' W 122°27'2 1.6
2015-Jul-05 02:33N 37°49' W 122°25'0 0.1
2015-Jul-05 01:33N 37°49' W 122°25'3 2.8
2015-Jul-05 00:33N 37°49' W 122°28'3 2.8
2015-Jul-04 23:33N 37°49' W 122°25'0 0.0
2015-Jul-04 22:33N 37°49' W 122°25'3 2.7
2015-Jul-04 21:33N 37°49' W 122°28'3 2.8
2015-Jul-04 20:33N 37°49' W 122°24'1 0.5
2015-Jul-04 19:33N 37°49' W 122°25'0 0.0
2015-Jul-04 18:30N 37°49' W 122°25'0 0.0
2015-Jul-04 17:27N 37°49' W 122°25'0 0.0
2015-Jul-04 16:26N 37°49' W 122°25'0 0.0
2015-Jul-04 15:33N 37°49' W 122°25'0 0.0
2015-Jul-04 14:32N 37°49' W 122°25'0 0.0
2015-Jul-04 13:27N 37°49' W 122°25'0 0.0
2015-Jul-04 12:32N 37°49' W 122°25'0 0.0
2015-Jul-04 11:26N 37°49' W 122°25'0 0.0
2015-Jul-04 10:32N 37°49' W 122°25'0 0.0
2015-Jul-04 09:30N 37°49' W 122°25'0 0.0
2015-Jul-04 08:31N 37°49' W 122°25'0 0.0
2015-Jul-04 07:31N 37°49' W 122°25'0 0.0
2015-Jul-04 06:32N 37°49' W 122°25'0 0.0
2015-Jul-04 05:29N 37°49' W 122°25'1 0.3
2015-Jul-04 02:20N 37°48' W 122°24'0 0.1
2015-Jul-04 01:19N 37°48' W 122°24'0 0.0
2015-Jul-04 00:33N 37°48' W 122°24'0 0.0
2015-Jul-03 23:33N 37°48' W 122°24'0 0.0
2015-Jul-03 22:29N 37°48' W 122°24'0 0.0
2015-Jul-03 21:28N 37°48' W 122°24'0 0.0
2015-Jul-03 20:30N 37°48' W 122°24'0 0.0
2015-Jul-03 19:33N 37°48' W 122°24'0 0.0
2015-Jul-03 18:31N 37°48' W 122°24'0 0.0
2015-Jul-03 17:33N 37°48' W 122°24'0 0.0
2015-Jul-03 16:31N 37°48' W 122°24'0 0.0
2015-Jul-03 15:32N 37°48' W 122°24'0 0.0
2015-Jul-03 14:33N 37°48' W 122°24'0 0.0
2015-Jul-03 13:32N 37°48' W 122°24'0 0.0
2015-Jul-03 12:32N 37°48' W 122°24'0 0.0
2015-Jul-03 11:30N 37°48' W 122°24'0 0.0
2015-Jul-03 10:33N 37°48' W 122°24'0 0.0
2015-Jul-03 09:32N 37°48' W 122°24'0 0.0
2015-Jul-03 08:33N 37°48' W 122°24'0 0.0
2015-Jul-03 07:30N 37°48' W 122°24'0 0.0
2015-Jul-03 06:33N 37°48' W 122°24'0 0.0
2015-Jul-03 05:31N 37°48' W 122°24'0 0.0
2015-Jul-03 04:33N 37°48' W 122°24'0 0.0
2015-Jul-03 03:29N 37°48' W 122°24'0 0.0
2015-Jul-03 02:33N 37°48' W 122°24'0 0.0
2015-Jul-03 01:33N 37°48' W 122°24'0 0.0
2015-Jul-03 00:31N 37°48' W 122°24'0 0.0
2015-Jul-02 23:33N 37°48' W 122°24'0 0.0
2015-Jul-02 22:33N 37°48' W 122°24'0 0.0
2015-Jul-02 21:32N 37°48' W 122°24'0 0.0
2015-Jul-02 20:30N 37°48' W 122°24'0 0.0
2015-Jul-02 19:31N 37°48' W 122°24'0 0.0
2015-Jul-02 18:29N 37°48' W 122°24'0 0.0
2015-Jul-02 17:31N 37°48' W 122°24'0 0.0
2015-Jul-02 16:32N 37°48' W 122°24'0 0.0
2015-Jul-02 15:31N 37°48' W 122°24'0 0.0
2015-Jul-02 14:27N 37°48' W 122°24'0 0.0
2015-Jul-02 13:32N 37°48' W 122°24'0 0.0
2015-Jul-02 12:33N 37°48' W 122°24'0 0.0
2015-Jul-02 11:33N 37°48' W 122°24'0 0.0
2015-Jul-02 10:30N 37°48' W 122°24'0 0.0
2015-Jul-02 09:30N 37°48' W 122°24'0 0.0
2015-Jul-02 08:33N 37°48' W 122°24'0 0.0
2015-Jul-02 07:32N 37°48' W 122°24'0 0.0
2015-Jul-02 06:26N 37°48' W 122°24'0 0.0
2015-Jul-02 05:31N 37°48' W 122°24'0 0.0
2015-Jul-02 04:31N 37°48' W 122°24'0 0.0
2015-Jul-02 03:33N 37°48' W 122°24'0 0.0
2015-Jul-02 02:31N 37°48' W 122°24'0 0.0
2015-Jul-02 01:29N 37°48' W 122°24'0 0.0
2015-Jul-02 00:31N 37°48' W 122°24'0 0.0
2015-Jul-01 23:33N 37°48' W 122°24'0 0.0
2015-Jul-01 22:33N 37°48' W 122°24'0 0.0
2015-Jul-01 21:31N 37°48' W 122°24'0 0.0
2015-Jul-01 20:32N 37°48' W 122°24'0 0.0
2015-Jul-01 19:32N 37°48' W 122°24'0 0.0
2015-Jul-01 18:26N 37°48' W 122°24'0 0.0
2015-Jul-01 17:28N 37°48' W 122°24'0 0.0
2015-Jul-01 16:33N 37°48' W 122°24'0 0.0
2015-Jul-01 15:33N 37°48' W 122°24'0 0.0
2015-Jul-01 14:32N 37°48' W 122°24'0 0.0
2015-Jul-01 13:27N 37°48' W 122°24'0 0.0
2015-Jul-01 12:32N 37°48' W 122°24'0 0.0
2015-Jul-01 11:29N 37°48' W 122°24'0 0.0
2015-Jul-01 10:33N 37°48' W 122°24'0 0.0
2015-Jul-01 09:30N 37°48' W 122°24'0 0.0
2015-Jul-01 08:33N 37°48' W 122°24'0 0.0
2015-Jul-01 07:30N 37°48' W 122°24'0 0.0
2015-Jul-01 06:31N 37°48' W 122°24'0 0.0
2015-Jul-01 05:30N 37°48' W 122°24'0 0.0
2015-Jul-01 04:32N 37°48' W 122°24'0 0.0
2015-Jul-01 03:27N 37°48' W 122°24'0 0.0
2015-Jul-01 02:31N 37°48' W 122°24'0 0.0
2015-Jul-01 01:27N 37°48' W 122°24'0 0.0
2015-Jul-01 00:31N 37°48' W 122°24'0 0.0
2015-Jun-30 23:31N 37°48' W 122°24'0 0.0
2015-Jun-30 22:31N 37°48' W 122°24'0 0.0
2015-Jun-30 21:29N 37°48' W 122°24'0 0.0
2015-Jun-30 20:30N 37°48' W 122°24'0 0.0
2015-Jun-30 19:32N 37°48' W 122°24'0 0.0
2015-Jun-30 18:32N 37°48' W 122°24'0 0.0
2015-Jun-30 17:32N 37°48' W 122°24'0 0.0
2015-Jun-30 16:30N 37°48' W 122°24'0 0.0
2015-Jun-30 15:30N 37°48' W 122°24'0 0.0
2015-Jun-30 14:32N 37°48' W 122°24'0 0.0
2015-Jun-30 13:31N 37°48' W 122°24'0 0.0
2015-Jun-30 12:30N 37°48' W 122°24'0 0.0
2015-Jun-30 11:31N 37°48' W 122°24'0 0.0
2015-Jun-30 10:31N 37°48' W 122°24'0 0.0
2015-Jun-30 09:32N 37°48' W 122°24'0 0.0
2015-Jun-30 08:33N 37°48' W 122°24'0 0.0
2015-Jun-30 07:33N 37°48' W 122°24'0 0.0
2015-Jun-30 06:33N 37°48' W 122°24'0 0.0
2015-Jun-30 05:31N 37°48' W 122°24'0 0.0
2015-Jun-30 04:31N 37°48' W 122°24'0 0.0
2015-Jun-30 03:32N 37°48' W 122°24'0 0.0
2015-Jun-30 02:32N 37°48' W 122°24'0 0.0
2015-Jun-30 01:33N 37°48' W 122°24'0 0.0
2015-Jun-30 00:33N 37°48' W 122°24'0 0.0
2015-Jun-29 23:33N 37°48' W 122°24'0 0.0
2015-Jun-29 22:31N 37°48' W 122°24'0 0.0
2015-Jun-29 21:30N 37°48' W 122°24'0 0.0
2015-Jun-29 20:31N 37°48' W 122°24'0 0.0
2015-Jun-29 19:29N 37°48' W 122°24'0 0.0
2015-Jun-29 18:33N 37°48' W 122°24'0 0.0
2015-Jun-29 17:31N 37°48' W 122°24'0 0.0
2015-Jun-29 16:32N 37°48' W 122°24'0 0.0
2015-Jun-29 15:29N 37°48' W 122°24'0 0.0
2015-Jun-29 14:33N 37°48' W 122°24'0 0.0
2015-Jun-29 13:32N 37°48' W 122°24'1 0.8
2015-Jun-29 12:26N 37°49' W 122°25'0 0.0
2015-Jun-29 11:32N 37°49' W 122°25'0 0.0
2015-Jun-29 10:31N 37°49' W 122°25'0 0.0
2015-Jun-29 09:33N 37°49' W 122°25'0 0.0
2015-Jun-29 08:33N 37°49' W 122°25'0 0.0
2015-Jun-29 07:31N 37°49' W 122°25'0 0.0
2015-Jun-29 06:33N 37°49' W 122°25'0 0.0
2015-Jun-29 05:33N 37°49' W 122°25'0 0.0
2015-Jun-29 04:32N 37°49' W 122°25'0 0.0
2015-Jun-29 03:28N 37°49' W 122°25'0 0.0
2015-Jun-29 02:31N 37°49' W 122°25'2 2.4
2015-Jun-29 01:33N 37°49' W 122°27'2 2.3
2015-Jun-29 00:33N 37°49' W 122°25'0 0.1
2015-Jun-28 23:33N 37°49' W 122°25'2 2.3
2015-Jun-28 22:33N 37°49' W 122°28'2 2.4
2015-Jun-28 21:33N 37°49' W 122°25'2 2.4
2015-Jun-28 20:33N 37°49' W 122°28'2 2.0
2015-Jun-28 19:33N 37°50' W 122°25'1 1.1
2015-Jun-28 18:33N 37°49' W 122°25'0 0.0
2015-Jun-28 17:27N 37°49' W 122°25'0 0.0
2015-Jun-28 16:33N 37°49' W 122°25'0 0.0
2015-Jun-28 15:30N 37°49' W 122°25'0 0.0
2015-Jun-28 14:32N 37°49' W 122°25'0 0.0
2015-Jun-28 13:27N 37°49' W 122°25'0 0.0
2015-Jun-28 12:32N 37°49' W 122°25'0 0.0
2015-Jun-28 11:29N 37°49' W 122°25'0 0.0
2015-Jun-28 10:31N 37°49' W 122°25'0 0.0
2015-Jun-28 09:28N 37°49' W 122°25'0 0.0
2015-Jun-28 08:30N 37°49' W 122°25'0 0.0
2015-Jun-28 07:32N 37°49' W 122°25'0 0.0
2015-Jun-28 06:33N 37°49' W 122°25'0 0.0
2015-Jun-28 05:33N 37°49' W 122°25'0 0.0
2015-Jun-28 04:31N 37°49' W 122°25'0 0.0
2015-Jun-28 03:31N 37°49' W 122°25'0 0.0
2015-Jun-28 02:31N 37°49' W 122°25'2 2.0
2015-Jun-28 01:33N 37°49' W 122°27'2 1.9
2015-Jun-28 00:33N 37°49' W 122°25'0 0.1
2015-Jun-27 23:34N 37°49' W 122°25'2 2.1
2015-Jun-27 22:33N 37°49' W 122°27'2 2.2
2015-Jun-27 21:33N 37°49' W 122°25'2 2.3
2015-Jun-27 20:33N 37°49' W 122°27'2 1.7
2015-Jun-27 19:34N 37°49' W 122°25'1 1.0
2015-Jun-27 18:33N 37°49' W 122°25'0 0.0
2015-Jun-27 17:32N 37°49' W 122°25'0 0.0
2015-Jun-27 16:30N 37°49' W 122°25'0 0.0
2015-Jun-27 15:30N 37°49' W 122°25'0 0.0
2015-Jun-27 14:33N 37°49' W 122°25'0 0.0
2015-Jun-27 13:31N 37°49' W 122°25'0 0.0
2015-Jun-27 12:30N 37°49' W 122°25'0 0.0
2015-Jun-27 11:33N 37°49' W 122°25'0 0.0
2015-Jun-27 10:33N 37°49' W 122°25'0 0.0
2015-Jun-27 09:26N 37°49' W 122°25'0 0.0
2015-Jun-27 08:32N 37°49' W 122°25'0 0.0
2015-Jun-27 07:32N 37°49' W 122°25'0 0.0
2015-Jun-27 06:33N 37°49' W 122°25'0 0.0
2015-Jun-27 05:27N 37°49' W 122°25'0 0.0
2015-Jun-27 04:33N 37°49' W 122°25'0 0.0
2015-Jun-27 03:28N 37°49' W 122°25'0 0.0
2015-Jun-27 02:30N 37°49' W 122°25'2 2.1
2015-Jun-27 01:33N 37°49' W 122°27'2 2.0
2015-Jun-27 00:33N 37°49' W 122°25'0 0.0
2015-Jun-26 23:33N 37°49' W 122°25'2 2.1
2015-Jun-26 22:33N 37°49' W 122°27'2 2.1
2015-Jun-26 21:33N 37°49' W 122°25'2 1.8
2015-Jun-26 20:33N 37°49' W 122°27'1 1.2
2015-Jun-26 19:33N 37°49' W 122°25'1 1.0
2015-Jun-26 18:33N 37°49' W 122°25'0 0.1
2015-Jun-26 17:27N 37°49' W 122°25'0 0.0
2015-Jun-26 16:24N 37°49' W 122°25'0 0.0
2015-Jun-26 15:28N 37°49' W 122°25'  
Track history (hours):
 
Tides and Currents Weather Stations Pressure Air Temp Water Temp Dewpoint Dewpoint Depression Visibility Wind Speed Wind Dir Waves Ship Positions

Oski

Owner: BLUE & GOLD FLEET, SAN FRANCISCO, CA. More information available from US FCC via Universal Licensing System and Coast Guard Vessel Documentation Center.

Last reported at 2015-Jul-06 15:21 UTC. Time now 2015-Jul-06 15:44 UTC.
Position N 37°48' W 122°24'.

Length 24 m; draft 2 m.

Type: Passenger vessel. MMSI: 366985320.

Date/timePositionNaut miles runAvg speedWind from/ knotsBaromVisibWave heightAir tempDewpointWater temp
2015-Jul-06 15:21N 37°48' W 122°24'0 0.0
2015-Jul-06 14:28N 37°48' W 122°24'0 0.0
2015-Jul-06 13:29N 37°48' W 122°24'0 0.0
2015-Jul-06 12:32N 37°48' W 122°24'0 0.0
2015-Jul-06 11:31N 37°48' W 122°24'0 0.0
2015-Jul-06 10:33N 37°48' W 122°24'0 0.0
2015-Jul-06 09:32N 37°48' W 122°24'0 0.0
2015-Jul-06 08:33N 37°48' W 122°24'0 0.0
2015-Jul-06 07:27N 37°48' W 122°24'0 0.0
2015-Jul-06 06:30N 37°48' W 122°24'0 0.0
2015-Jul-06 05:32N 37°48' W 122°24'0 0.0
2015-Jul-06 04:33N 37°48' W 122°24'0 0.0
2015-Jul-06 03:32N 37°48' W 122°24'0 0.0
2015-Jul-06 02:26N 37°48' W 122°24'0 0.0
2015-Jul-06 01:33N 37°48' W 122°24'0 0.0
2015-Jul-06 00:26N 37°48' W 122°24'0 0.0
2015-Jul-05 23:27N 37°48' W 122°24'0 0.0
2015-Jul-05 22:33N 37°48' W 122°24'0 0.0
2015-Jul-05 21:29N 37°48' W 122°24'0 0.0
2015-Jul-05 20:31N 37°48' W 122°24'0 0.0
2015-Jul-05 19:32N 37°48' W 122°24'0 0.0
2015-Jul-05 18:23N 37°48' W 122°24'0 0.0
2015-Jul-05 17:28N 37°48' W 122°24'0 0.0
2015-Jul-05 16:26N 37°48' W 122°24'0 0.0
2015-Jul-05 15:33N 37°48' W 122°24'0 0.0
2015-Jul-05 14:31N 37°48' W 122°24'0 0.0
2015-Jul-05 13:32N 37°48' W 122°24'0 0.0
2015-Jul-05 12:26N 37°48' W 122°24'0 0.0
2015-Jul-05 11:27N 37°48' W 122°24'0 0.0
2015-Jul-05 10:31N 37°48' W 122°24'0 0.0
2015-Jul-05 09:33N 37°48' W 122°24'0 0.0
2015-Jul-05 08:23N 37°48' W 122°24'0 0.0
2015-Jul-05 07:28N 37°48' W 122°24'0 0.0
2015-Jul-05 06:32N 37°48' W 122°24'1 0.8
2015-Jul-05 05:33N 37°49' W 122°25'1 0.8
2015-Jul-05 04:33N 37°49' W 122°24'2 2.0
2015-Jul-05 03:33N 37°49' W 122°27'2 1.6
2015-Jul-05 02:33N 37°49' W 122°25'0 0.1
2015-Jul-05 01:33N 37°49' W 122°25'3 2.8
2015-Jul-05 00:33N 37°49' W 122°28'3 2.8
2015-Jul-04 23:33N 37°49' W 122°25'0 0.0
2015-Jul-04 22:33N 37°49' W 122°25'3 2.7
2015-Jul-04 21:33N 37°49' W 122°28'3 2.8
2015-Jul-04 20:33N 37°49' W 122°24'1 0.5
2015-Jul-04 19:33N 37°49' W 122°25'0 0.0
2015-Jul-04 18:30N 37°49' W 122°25'0 0.0
2015-Jul-04 17:27N 37°49' W 122°25'0 0.0
2015-Jul-04 16:26N 37°49' W 122°25'0 0.0
2015-Jul-04 15:33N 37°49' W 122°25'0 0.0
2015-Jul-04 14:32N 37°49' W 122°25'0 0.0
2015-Jul-04 13:27N 37°49' W 122°25'0 0.0
2015-Jul-04 12:32N 37°49' W 122°25'0 0.0
2015-Jul-04 11:26N 37°49' W 122°25'0 0.0
2015-Jul-04 10:32N 37°49' W 122°25'0 0.0
2015-Jul-04 09:30N 37°49' W 122°25'0 0.0
2015-Jul-04 08:31N 37°49' W 122°25'0 0.0
2015-Jul-04 07:31N 37°49' W 122°25'0 0.0
2015-Jul-04 06:32N 37°49' W 122°25'0 0.0
2015-Jul-04 05:29N 37°49' W 122°25'1 0.3
2015-Jul-04 02:20N 37°48' W 122°24'0 0.1
2015-Jul-04 01:19N 37°48' W 122°24'0 0.0
2015-Jul-04 00:33N 37°48' W 122°24'0 0.0
2015-Jul-03 23:33N 37°48' W 122°24'0 0.0
2015-Jul-03 22:29N 37°48' W 122°24'0 0.0
2015-Jul-03 21:28N 37°48' W 122°24'0 0.0
2015-Jul-03 20:30N 37°48' W 122°24'0 0.0
2015-Jul-03 19:33N 37°48' W 122°24'0 0.0
2015-Jul-03 18:31N 37°48' W 122°24'0 0.0
2015-Jul-03 17:33N 37°48' W 122°24'0 0.0
2015-Jul-03 16:31N 37°48' W 122°24'0 0.0
2015-Jul-03 15:32N 37°48' W 122°24'0 0.0
2015-Jul-03 14:33N 37°48' W 122°24'0 0.0
2015-Jul-03 13:32N 37°48' W 122°24'0 0.0
2015-Jul-03 12:32N 37°48' W 122°24'0 0.0
2015-Jul-03 11:30N 37°48' W 122°24'0 0.0
2015-Jul-03 10:33N 37°48' W 122°24'0 0.0
2015-Jul-03 09:32N 37°48' W 122°24'0 0.0
2015-Jul-03 08:33N 37°48' W 122°24'0 0.0
2015-Jul-03 07:30N 37°48' W 122°24'0 0.0
2015-Jul-03 06:33N 37°48' W 122°24'0 0.0
2015-Jul-03 05:31N 37°48' W 122°24'0 0.0
2015-Jul-03 04:33N 37°48' W 122°24'0 0.0
2015-Jul-03 03:29N 37°48' W 122°24'0 0.0
2015-Jul-03 02:33N 37°48' W 122°24'0 0.0
2015-Jul-03 01:33N 37°48' W 122°24'0 0.0
2015-Jul-03 00:31N 37°48' W 122°24'0 0.0
2015-Jul-02 23:33N 37°48' W 122°24'0 0.0
2015-Jul-02 22:33N 37°48' W 122°24'0 0.0
2015-Jul-02 21:32N 37°48' W 122°24'0 0.0
2015-Jul-02 20:30N 37°48' W 122°24'0 0.0
2015-Jul-02 19:31N 37°48' W 122°24'0 0.0
2015-Jul-02 18:29N 37°48' W 122°24'0 0.0
2015-Jul-02 17:31N 37°48' W 122°24'0 0.0
2015-Jul-02 16:32N 37°48' W 122°24'0 0.0
2015-Jul-02 15:31N 37°48' W 122°24'0 0.0
2015-Jul-02 14:27N 37°48' W 122°24'0 0.0
2015-Jul-02 13:32N 37°48' W 122°24'0 0.0
2015-Jul-02 12:33N 37°48' W 122°24'0 0.0
2015-Jul-02 11:33N 37°48' W 122°24'0 0.0
2015-Jul-02 10:30N 37°48' W 122°24'0 0.0
2015-Jul-02 09:30N 37°48' W 122°24'0 0.0
2015-Jul-02 08:33N 37°48' W 122°24'0 0.0
2015-Jul-02 07:32N 37°48' W 122°24'0 0.0
2015-Jul-02 06:26N 37°48' W 122°24'0 0.0
2015-Jul-02 05:31N 37°48' W 122°24'0 0.0
2015-Jul-02 04:31N 37°48' W 122°24'0 0.0
2015-Jul-02 03:33N 37°48' W 122°24'0 0.0
2015-Jul-02 02:31N 37°48' W 122°24'0 0.0
2015-Jul-02 01:29N 37°48' W 122°24'0 0.0
2015-Jul-02 00:31N 37°48' W 122°24'0 0.0
2015-Jul-01 23:33N 37°48' W 122°24'0 0.0
2015-Jul-01 22:33N 37°48' W 122°24'0 0.0
2015-Jul-01 21:31N 37°48' W 122°24'0 0.0
2015-Jul-01 20:32N 37°48' W 122°24'0 0.0
2015-Jul-01 19:32N 37°48' W 122°24'0 0.0
2015-Jul-01 18:26N 37°48' W 122°24'0 0.0
2015-Jul-01 17:28N 37°48' W 122°24'0 0.0
2015-Jul-01 16:33N 37°48' W 122°24'0 0.0
2015-Jul-01 15:33N 37°48' W 122°24'0 0.0
2015-Jul-01 14:32N 37°48' W 122°24'0 0.0
2015-Jul-01 13:27N 37°48' W 122°24'0 0.0
2015-Jul-01 12:32N 37°48' W 122°24'0 0.0
2015-Jul-01 11:29N 37°48' W 122°24'0 0.0
2015-Jul-01 10:33N 37°48' W 122°24'0 0.0
2015-Jul-01 09:30N 37°48' W 122°24'0 0.0
2015-Jul-01 08:33N 37°48' W 122°24'0 0.0
2015-Jul-01 07:30N 37°48' W 122°24'0 0.0
2015-Jul-01 06:31N 37°48' W 122°24'0 0.0
2015-Jul-01 05:30N 37°48' W 122°24'0 0.0
2015-Jul-01 04:32N 37°48' W 122°24'0 0.0
2015-Jul-01 03:27N 37°48' W 122°24'0 0.0
2015-Jul-01 02:31N 37°48' W 122°24'0 0.0
2015-Jul-01 01:27N 37°48' W 122°24'0 0.0
2015-Jul-01 00:31N 37°48' W 122°24'0 0.0
2015-Jun-30 23:31N 37°48' W 122°24'0 0.0
2015-Jun-30 22:31N 37°48' W 122°24'0 0.0
2015-Jun-30 21:29N 37°48' W 122°24'0 0.0
2015-Jun-30 20:30N 37°48' W 122°24'0 0.0
2015-Jun-30 19:32N 37°48' W 122°24'0 0.0
2015-Jun-30 18:32N 37°48' W 122°24'0 0.0
2015-Jun-30 17:32N 37°48' W 122°24'0 0.0
2015-Jun-30 16:30N 37°48' W 122°24'0 0.0
2015-Jun-30 15:30N 37°48' W 122°24'0 0.0
2015-Jun-30 14:32N 37°48' W 122°24'0 0.0
2015-Jun-30 13:31N 37°48' W 122°24'0 0.0
2015-Jun-30 12:30N 37°48' W 122°24'0 0.0
2015-Jun-30 11:31N 37°48' W 122°24'0 0.0
2015-Jun-30 10:31N 37°48' W 122°24'0 0.0
2015-Jun-30 09:32N 37°48' W 122°24'0 0.0
2015-Jun-30 08:33N 37°48' W 122°24'0 0.0
2015-Jun-30 07:33N 37°48' W 122°24'0 0.0
2015-Jun-30 06:33N 37°48' W 122°24'0 0.0
2015-Jun-30 05:31N 37°48' W 122°24'0 0.0
2015-Jun-30 04:31N 37°48' W 122°24'0 0.0
2015-Jun-30 03:32N 37°48' W 122°24'0 0.0
2015-Jun-30 02:32N 37°48' W 122°24'0 0.0
2015-Jun-30 01:33N 37°48' W 122°24'0 0.0
2015-Jun-30 00:33N 37°48' W 122°24'0 0.0
2015-Jun-29 23:33N 37°48' W 122°24'0 0.0
2015-Jun-29 22:31N 37°48' W 122°24'0 0.0
2015-Jun-29 21:30N 37°48' W 122°24'0 0.0
2015-Jun-29 20:31N 37°48' W 122°24'0 0.0
2015-Jun-29 19:29N 37°48' W 122°24'0 0.0
2015-Jun-29 18:33N 37°48' W 122°24'0 0.0
2015-Jun-29 17:31N 37°48' W 122°24'0 0.0
2015-Jun-29 16:32N 37°48' W 122°24'0 0.0
2015-Jun-29 15:29N 37°48' W 122°24'0 0.0
2015-Jun-29 14:33N 37°48' W 122°24'0 0.0
2015-Jun-29 13:32N 37°48' W 122°24'1 0.8
2015-Jun-29 12:26N 37°49' W 122°25'0 0.0
2015-Jun-29 11:32N 37°49' W 122°25'0 0.0
2015-Jun-29 10:31N 37°49' W 122°25'0 0.0
2015-Jun-29 09:33N 37°49' W 122°25'0 0.0
2015-Jun-29 08:33N 37°49' W 122°25'0 0.0
2015-Jun-29 07:31N 37°49' W 122°25'0 0.0
2015-Jun-29 06:33N 37°49' W 122°25'0 0.0
2015-Jun-29 05:33N 37°49' W 122°25'0 0.0
2015-Jun-29 04:32N 37°49' W 122°25'0 0.0
2015-Jun-29 03:28N 37°49' W 122°25'0 0.0
2015-Jun-29 02:31N 37°49' W 122°25'2 2.4
2015-Jun-29 01:33N 37°49' W 122°27'2 2.3
2015-Jun-29 00:33N 37°49' W 122°25'0 0.1
2015-Jun-28 23:33N 37°49' W 122°25'2 2.3
2015-Jun-28 22:33N 37°49' W 122°28'2 2.4
2015-Jun-28 21:33N 37°49' W 122°25'2 2.4
2015-Jun-28 20:33N 37°49' W 122°28'2 2.0
2015-Jun-28 19:33N 37°50' W 122°25'1 1.1
2015-Jun-28 18:33N 37°49' W 122°25'0 0.0
2015-Jun-28 17:27N 37°49' W 122°25'0 0.0
2015-Jun-28 16:33N 37°49' W 122°25'0 0.0
2015-Jun-28 15:30N 37°49' W 122°25'0 0.0
2015-Jun-28 14:32N 37°49' W 122°25'0 0.0
2015-Jun-28 13:27N 37°49' W 122°25'0 0.0
2015-Jun-28 12:32N 37°49' W 122°25'0 0.0
2015-Jun-28 11:29N 37°49' W 122°25'0 0.0
2015-Jun-28 10:31N 37°49' W 122°25'0 0.0
2015-Jun-28 09:28N 37°49' W 122°25'0 0.0
2015-Jun-28 08:30N 37°49' W 122°25'0 0.0
2015-Jun-28 07:32N 37°49' W 122°25'0 0.0
2015-Jun-28 06:33N 37°49' W 122°25'0 0.0
2015-Jun-28 05:33N 37°49' W 122°25'0 0.0
2015-Jun-28 04:31N 37°49' W 122°25'0 0.0
2015-Jun-28 03:31N 37°49' W 122°25'0 0.0
2015-Jun-28 02:31N 37°49' W 122°25'2 2.0
2015-Jun-28 01:33N 37°49' W 122°27'2 1.9
2015-Jun-28 00:33N 37°49' W 122°25'0 0.1
2015-Jun-27 23:34N 37°49' W 122°25'2 2.1
2015-Jun-27 22:33N 37°49' W 122°27'2 2.2
2015-Jun-27 21:33N 37°49' W 122°25'2 2.3
2015-Jun-27 20:33N 37°49' W 122°27'2 1.7
2015-Jun-27 19:34N 37°49' W 122°25'1 1.0
2015-Jun-27 18:33N 37°49' W 122°25'0 0.0
2015-Jun-27 17:32N 37°49' W 122°25'0 0.0
2015-Jun-27 16:30N 37°49' W 122°25'0 0.0
2015-Jun-27 15:30N 37°49' W 122°25'0 0.0
2015-Jun-27 14:33N 37°49' W 122°25'0 0.0
2015-Jun-27 13:31N 37°49' W 122°25'0 0.0
2015-Jun-27 12:30N 37°49' W 122°25'0 0.0
2015-Jun-27 11:33N 37°49' W 122°25'0 0.0
2015-Jun-27 10:33N 37°49' W 122°25'0 0.0
2015-Jun-27 09:26N 37°49' W 122°25'0 0.0
2015-Jun-27 08:32N 37°49' W 122°25'0 0.0
2015-Jun-27 07:32N 37°49' W 122°25'0 0.0
2015-Jun-27 06:33N 37°49' W 122°25'0 0.0
2015-Jun-27 05:27N 37°49' W 122°25'0 0.0
2015-Jun-27 04:33N 37°49' W 122°25'0 0.0
2015-Jun-27 03:28N 37°49' W 122°25'0 0.0
2015-Jun-27 02:30N 37°49' W 122°25'2 2.1
2015-Jun-27 01:33N 37°49' W 122°27'2 2.0
2015-Jun-27 00:33N 37°49' W 122°25'0 0.0
2015-Jun-26 23:33N 37°49' W 122°25'2 2.1
2015-Jun-26 22:33N 37°49' W 122°27'2 2.1
2015-Jun-26 21:33N 37°49' W 122°25'2 1.8
2015-Jun-26 20:33N 37°49' W 122°27'1 1.2
2015-Jun-26 19:33N 37°49' W 122°25'1 1.0
2015-Jun-26 18:33N 37°49' W 122°25'0 0.1
2015-Jun-26 17:27N 37°49' W 122°25'0 0.0
2015-Jun-26 16:24N 37°49' W 122°25'0 0.0
2015-Jun-26 15:28N 37°49' W 122°25'  

Dump ship's entire track history